Time;durP1;ratioP1;P1;durP2;ratioP2;P2;SDS_P1;SDS_P2;PMS_P1;PMS_P2;Temp;Humidity;BMP_temperature;BMP_pressure;BME280_temperature;BME280_humidity;BME280_pressure;Samples;Min_cycle;Max_cycle;Signal;HPM_P1;HPM_P2
2023/02/13 00:01:59;;;;;;;13.07;8.57;;;7.80;99.90;;;;;;5087703;28;20238;-73
2023/02/13 00:04:25;;;;;;;12.27;8.47;;;7.70;99.90;;;;;;5087367;28;20299;-73
2023/02/13 00:06:53;;;;;;;16.27;8.33;;;7.80;99.90;;;;;;5085567;28;20293;-73
2023/02/13 00:09:19;;;;;;;15.93;8.47;;;7.70;99.90;;;;;;5077416;28;20305;-73
2023/02/13 00:11:48;;;;;;;14.17;8.23;;;7.70;99.90;;;;;;5067360;28;20214;-73
2023/02/13 00:14:14;;;;;;;11.30;7.40;;;7.70;99.90;;;;;;5067593;28;20199;-73
2023/02/13 00:16:41;;;;;;;10.27;7.27;;;7.70;99.90;;;;;;5067650;28;20250;-72
2023/02/13 00:19:08;;;;;;;15.67;7.80;;;7.70;99.90;;;;;;5067790;28;20280;-72
2023/02/13 00:21:35;;;;;;;10.53;7.33;;;7.70;99.90;;;;;;5080569;28;20695;-72
2023/02/13 00:24:02;;;;;;;8.70;6.17;;;7.70;99.90;;;;;;5087135;28;20191;-73
2023/02/13 00:26:29;;;;;;;7.57;5.73;;;7.70;99.90;;;;;;5087449;28;20218;-72
2023/02/13 00:29:00;;;;;;;9.03;5.80;;;7.70;99.90;;;;;;5087631;28;20286;-72
2023/02/13 00:31:27;;;;;;;8.27;6.00;;;7.70;99.90;;;;;;5073968;28;20207;-72
2023/02/13 00:33:54;;;;;;;5.63;4.20;;;7.80;99.90;;;;;;5067297;28;20294;-72
2023/02/13 00:36:23;;;;;;;4.40;3.57;;;7.70;99.90;;;;;;5079046;28;20210;-72
2023/02/13 00:38:50;;;;;;;6.00;3.90;;;7.70;99.90;;;;;;5077208;28;20203;-73
2023/02/13 00:41:17;;;;;;;5.07;3.30;;;7.70;99.90;;;;;;5067030;28;20207;-72
2023/02/13 00:43:44;;;;;;;3.87;3.47;;;7.70;99.90;;;;;;5057727;28;20287;-72
2023/02/13 00:46:13;;;;;;;4.63;2.77;;;7.80;99.90;;;;;;5047322;28;20208;-72
2023/02/13 00:48:40;;;;;;;2.93;2.40;;;7.70;99.90;;;;;;5046901;28;20751;-72
2023/02/13 00:51:08;;;;;;;2.70;2.20;;;7.70;99.90;;;;;;5047270;28;20286;-72
2023/02/13 00:53:36;;;;;;;2.50;2.30;;;7.70;99.90;;;;;;5058312;28;20221;-72
2023/02/13 00:56:04;;;;;;;2.10;1.90;;;7.70;99.90;;;;;;5066981;28;20243;-73
2023/02/13 00:58:31;;;;;;;2.57;2.07;;;7.70;99.90;;;;;;5066739;28;20765;-73
2023/02/13 01:00:57;;;;;;;2.53;2.20;;;7.70;99.90;;;;;;5067145;28;20210;-73
2023/02/13 01:03:26;;;;;;;4.03;2.20;;;7.60;99.90;;;;;;5068388;28;20566;-74
2023/02/13 01:05:53;;;;;;;2.73;2.30;;;7.60;99.90;;;;;;5086888;28;20241;-75
2023/02/13 01:08:20;;;;;;;2.60;2.40;;;7.70;99.90;;;;;;5086969;28;20320;-73
2023/02/13 01:10:48;;;;;;;2.80;2.57;;;7.60;99.90;;;;;;5087171;28;20230;-74
2023/02/13 01:13:18;;;;;;;5.07;2.30;;;7.60;99.90;;;;;;5087289;28;20404;-74
2023/02/13 01:15:46;;;;;;;3.77;2.50;;;7.60;99.90;;;;;;5087235;28;20195;-74
2023/02/13 01:18:14;;;;;;;6.83;2.83;;;7.60;99.90;;;;;;5090987;28;20213;-73
2023/02/13 01:20:43;;;;;;;2.47;2.27;;;7.60;99.90;;;;;;5090603;28;20524;-72
2023/02/13 01:23:11;;;;;;;3.00;2.40;;;7.60;99.90;;;;;;5090251;28;20238;-73
2023/02/13 01:25:40;;;;;;;2.67;2.27;;;7.60;99.90;;;;;;5090744;28;20282;-73
2023/02/13 01:28:07;;;;;;;2.43;2.10;;;7.50;99.90;;;;;;5073486;28;20235;-74
2023/02/13 01:30:34;;;;;;;3.57;2.17;;;7.60;99.90;;;;;;5064785;28;20315;-73
2023/02/13 01:33:01;;;;;;;2.03;1.77;;;7.60;99.90;;;;;;5050343;28;20216;-73
2023/02/13 01:35:28;;;;;;;3.13;2.20;;;7.60;99.90;;;;;;5050759;28;20290;-73
2023/02/13 01:37:56;;;;;;;2.30;2.10;;;7.60;99.90;;;;;;5051983;28;20678;-75
2023/02/13 01:40:23;;;;;;;2.23;2.13;;;7.60;99.90;;;;;;5052908;28;20208;-74
2023/02/13 01:42:50;;;;;;;2.63;2.20;;;7.60;99.90;;;;;;5050036;28;20204;-75
2023/02/13 01:45:24;;;;;;;2.00;1.83;;;7.60;99.90;;;;;;5056801;28;20290;-75
2023/02/13 01:47:54;;;;;;;2.23;2.03;;;7.60;99.90;;;;;;5070119;28;20600;-75
2023/02/13 01:50:24;;;;;;;3.70;2.00;;;7.60;99.90;;;;;;5074774;28;20327;-75
2023/02/13 01:52:54;;;;;;;3.43;1.87;;;7.50;99.90;;;;;;5070164;28;20294;-75
2023/02/13 01:55:23;;;;;;;4.20;2.10;;;7.60;99.90;;;;;;5070313;28;20199;-75
2023/02/13 01:57:54;;;;;;;5.47;2.03;;;7.60;99.90;;;;;;5064796;28;20236;-74
2023/02/13 02:00:21;;;;;;;1.97;1.87;;;7.60;99.90;;;;;;5050036;28;20283;-75
2023/02/13 02:02:55;;;;;;;2.30;2.00;;;7.50;99.90;;;;;;5050102;28;20287;-74
2023/02/13 02:05:26;;;;;;;2.00;1.77;;;7.50;99.90;;;;;;5052185;28;20207;-73
2023/02/13 02:07:55;;;;;;;2.43;2.00;;;7.50;99.90;;;;;;5088135;28;20203;-74
2023/02/13 02:10:24;;;;;;;2.00;1.80;;;7.50;99.90;;;;;;5090193;28;20260;-74
2023/02/13 02:12:56;;;;;;;2.40;2.00;;;7.50;99.90;;;;;;5089983;28;20447;-74
2023/02/13 02:15:23;;;;;;;2.27;1.77;;;7.50;99.90;;;;;;5073598;28;20298;-74
2023/02/13 02:17:50;;;;;;;2.07;1.70;;;7.50;99.90;;;;;;5085952;28;20290;-73
2023/02/13 02:20:26;;;;;;;2.00;1.80;;;7.50;99.90;;;;;;5089744;28;20293;-73
2023/02/13 02:23:26;;;;;;;2.47;1.90;;;7.50;99.90;;;;;;5088554;28;21107;-74
2023/02/13 02:26:23;;;;;;;2.27;1.90;;;7.50;99.90;;;;;;5069101;28;20648;-72
2023/02/13 02:29:21;;;;;;;2.20;1.90;;;7.50;99.90;;;;;;5077760;28;20630;-72
2023/02/13 02:32:10;;;;;;;2.93;2.10;;;7.50;99.90;;;;;;5088712;28;20219;-72
2023/02/13 02:34:47;;;;;;;2.27;2.10;;;7.50;99.90;;;;;;5088014;28;20278;-72
2023/02/13 02:37:26;;;;;;;3.93;2.80;;;7.50;99.90;;;;;;5069389;28;20565;-72
2023/02/13 02:40:07;;;;;;;4.60;2.40;;;7.40;99.90;;;;;;5070453;28;20289;-73
2023/02/13 02:42:43;;;;;;;3.47;2.80;;;7.50;99.90;;;;;;5069494;28;20195;-73
2023/02/13 02:45:19;;;;;;;3.17;2.73;;;7.50;99.90;;;;;;5069665;28;20191;-72
2023/02/13 02:50:42;;;;;;;2.80;2.60;;;7.40;99.90;;;;;;5049165;28;20219;-73
2023/02/13 02:53:22;;;;;;;3.23;2.93;;;7.50;99.90;;;;;;5058886;28;20313;-73
2023/02/13 02:55:55;;;;;;;5.53;3.20;;;7.40;99.90;;;;;;5068825;28;20207;-73
2023/02/13 03:06:49;;;;;;;4.30;3.47;;;7.50;99.90;;;;;;5048433;28;20196;-72
2023/02/13 03:14:49;;;;;;;4.53;4.13;;;7.50;99.90;;;;;;5048156;28;20203;-72
2023/02/13 03:23:13;;;;;;;4.30;3.90;;;7.40;99.90;;;;;;5067801;28;20241;-71
2023/02/13 03:25:57;;;;;;;5.57;4.43;;;7.40;99.90;;;;;;5068409;28;20191;-72
2023/02/13 03:31:23;;;;;;;4.33;3.93;;;7.40;99.90;;;;;;5058135;28;20234;-72
2023/02/13 03:33:57;;;;;;;5.33;4.10;;;7.40;99.90;;;;;;5065832;28;20223;-71
2023/02/13 03:39:22;;;;;;;5.57;4.87;;;7.40;99.90;;;;;;5071577;28;20980;-73
2023/02/13 03:41:52;;;;;;;7.03;5.73;;;7.40;99.90;;;;;;5062969;28;20211;-73
2023/02/13 03:44:26;;;;;;;6.70;4.87;;;7.40;99.90;;;;;;5064533;28;20323;-72
2023/02/13 03:46:57;;;;;;;7.73;4.83;;;7.40;99.90;;;;;;5065417;28;20231;-73
2023/02/13 03:52:19;;;;;;;8.03;6.43;;;7.40;99.90;;;;;;5049868;28;20393;-72
2023/02/13 04:00:22;;;;;;;8.30;6.83;;;7.30;99.90;;;;;;5067107;28;20244;-72
2023/02/13 04:02:57;;;;;;;9.63;6.97;;;7.30;99.90;;;;;;5066903;28;20204;-72
2023/02/13 04:05:28;;;;;;;8.87;6.93;;;7.30;99.90;;;;;;5071206;28;20210;-72
2023/02/13 04:07:57;;;;;;;7.10;6.40;;;7.30;99.90;;;;;;5087491;28;20284;-71
2023/02/13 04:10:27;;;;;;;7.90;7.10;;;7.30;99.90;;;;;;5087793;28;20594;-72
2023/02/13 04:13:01;;;;;;;8.93;6.97;;;7.30;99.90;;;;;;5087230;28;20659;-71
2023/02/13 04:15:32;;;;;;;6.70;5.87;;;7.30;99.90;;;;;;5086320;28;20285;-72
2023/02/13 04:18:06;;;;;;;10.70;7.40;;;7.30;99.90;;;;;;5067285;28;20198;-72
2023/02/13 04:20:33;;;;;;;7.53;6.30;;;7.20;99.90;;;;;;5067269;28;20286;-72
2023/02/13 04:23:07;;;;;;;7.97;6.30;;;7.20;99.90;;;;;;5066818;28;20650;-72
2023/02/13 04:25:35;;;;;;;9.67;6.93;;;7.20;99.90;;;;;;5067141;28;20675;-72
2023/02/13 04:28:02;;;;;;;10.53;6.83;;;7.20;99.90;;;;;;5067017;28;20290;-72
2023/02/13 04:30:29;;;;;;;10.40;7.53;;;7.20;99.90;;;;;;5067235;28;20229;-72
2023/02/13 04:32:56;;;;;;;11.33;7.90;;;7.20;99.90;;;;;;5067481;28;20658;-72
2023/02/13 04:35:23;;;;;;;8.60;7.60;;;7.10;99.90;;;;;;5070768;28;20301;-72
2023/02/13 04:37:50;;;;;;;8.93;7.23;;;7.20;99.90;;;;;;5085353;28;20213;-72
2023/02/13 04:40:19;;;;;;;7.70;6.73;;;7.20;99.90;;;;;;5050444;28;20232;-72
2023/02/13 04:42:47;;;;;;;7.93;6.63;;;7.20;99.90;;;;;;5047277;28;20266;-72
2023/02/13 04:45:15;;;;;;;9.97;6.27;;;7.10;99.90;;;;;;5047218;28;20208;-71
2023/02/13 04:47:42;;;;;;;7.27;6.47;;;7.10;99.90;;;;;;5061476;28;20326;-72
2023/02/13 04:50:09;;;;;;;7.27;6.53;;;7.10;99.90;;;;;;5068433;28;20305;-73
2023/02/13 04:52:36;;;;;;;8.40;6.83;;;7.10;99.90;;;;;;5071194;28;20213;-72
2023/02/13 04:55:03;;;;;;;6.93;6.27;;;7.20;99.90;;;;;;5071116;28;20302;-72
2023/02/13 04:57:31;;;;;;;6.93;5.93;;;7.10;99.90;;;;;;5071112;28;20240;-71
2023/02/13 04:59:58;;;;;;;7.03;6.20;;;7.20;99.90;;;;;;5071106;28;20619;-72
2023/02/13 05:02:25;;;;;;;6.20;5.60;;;7.10;99.90;;;;;;5071152;28;20662;-72
2023/02/13 05:04:52;;;;;;;6.90;6.17;;;7.20;99.90;;;;;;5070799;28;20217;-72
2023/02/13 05:07:19;;;;;;;6.90;6.20;;;7.10;99.90;;;;;;5081560;28;20635;-72
2023/02/13 05:09:46;;;;;;;6.83;5.93;;;7.10;99.90;;;;;;5070467;28;20326;-71
2023/02/13 05:12:13;;;;;;;8.30;5.80;;;7.10;99.90;;;;;;5070548;28;20227;-72
2023/02/13 05:14:41;;;;;;;6.93;6.23;;;7.10;99.90;;;;;;5070498;28;20302;-72
2023/02/13 05:17:08;;;;;;;6.60;5.90;;;7.10;99.90;;;;;;5071160;28;20286;-72
2023/02/13 05:19:35;;;;;;;5.97;5.37;;;7.10;99.90;;;;;;5070403;28;20306;-72
2023/02/13 05:24:46;;;;;;;6.10;5.33;;;7.10;99.90;;;;;;5057728;28;20297;-72
2023/02/13 05:27:13;;;;;;;7.03;5.87;;;7.10;99.90;;;;;;5050556;28;20211;-71
2023/02/13 05:29:41;;;;;;;6.30;5.70;;;7.10;99.90;;;;;;5050465;28;20240;-71
2023/02/13 05:32:08;;;;;;;7.57;5.60;;;7.10;99.90;;;;;;5050040;28;20723;-72
2023/02/13 05:34:35;;;;;;;6.00;5.40;;;7.10;99.90;;;;;;5055309;28;20741;-72
2023/02/13 05:37:02;;;;;;;7.03;5.40;;;7.10;99.90;;;;;;5084947;28;20214;-72
2023/02/13 05:39:28;;;;;;;8.00;5.57;;;7.00;99.90;;;;;;5074946;28;20208;-71
2023/02/13 05:41:55;;;;;;;5.57;5.00;;;7.10;99.90;;;;;;5070139;28;20302;-72
2023/02/13 05:44:22;;;;;;;5.67;4.70;;;7.10;99.90;;;;;;5070311;28;20218;-71
2023/02/13 05:46:52;;;;;;;5.63;5.03;;;7.10;99.90;;;;;;5070224;28;20653;-71
2023/02/13 05:49:19;;;;;;;5.37;4.87;;;7.10;99.90;;;;;;5070438;28;20260;-72
2023/02/13 05:51:46;;;;;;;6.30;5.37;;;7.10;99.90;;;;;;5068931;28;20326;-71
2023/02/13 05:54:13;;;;;;;5.10;4.60;;;7.10;99.90;;;;;;5069841;28;20216;-72
2023/02/13 05:56:40;;;;;;;5.37;4.87;;;7.10;99.90;;;;;;5070490;28;20218;-71
2023/02/13 05:59:06;;;;;;;5.70;4.93;;;7.10;99.90;;;;;;5070330;28;20212;-72
2023/02/13 06:01:33;;;;;;;7.33;5.07;;;7.20;99.90;;;;;;5069172;28;20308;-73
2023/02/13 06:04:02;;;;;;;5.17;4.67;;;7.10;99.90;;;;;;5069644;28;20749;-72
2023/02/13 06:06:28;;;;;;;6.27;5.03;;;7.20;99.90;;;;;;5082510;28;20207;-72
2023/02/13 06:08:55;;;;;;;5.30;4.80;;;7.20;99.90;;;;;;5080194;28;20302;-72
2023/02/13 06:11:22;;;;;;;5.50;4.90;;;7.10;99.90;;;;;;5069477;28;20821;-72
2023/02/13 06:13:49;;;;;;;5.77;4.77;;;7.10;99.90;;;;;;5069554;28;20286;-72
2023/02/13 06:16:16;;;;;;;5.57;5.07;;;7.10;99.90;;;;;;5069745;28;20294;-73
2023/02/13 06:18:43;;;;;;;5.13;4.70;;;7.10;99.90;;;;;;5069579;28;20618;-72
2023/02/13 06:21:11;;;;;;;5.43;5.00;;;7.20;99.90;;;;;;5056111;28;20204;-72
2023/02/13 06:23:38;;;;;;;5.80;4.70;;;7.20;99.90;;;;;;5048928;28;20271;-72
2023/02/13 06:26:06;;;;;;;5.77;5.17;;;7.10;99.90;;;;;;5049597;28;20292;-72
2023/02/13 06:28:33;;;;;;;5.73;5.27;;;7.20;99.90;;;;;;5049445;28;20212;-72
2023/02/13 06:31:00;;;;;;;5.73;4.90;;;7.20;99.90;;;;;;5055833;28;20296;-73
2023/02/13 06:33:28;;;;;;;5.70;4.93;;;7.20;99.90;;;;;;5069427;28;20222;-72
2023/02/13 06:35:54;;;;;;;5.03;4.57;;;7.20;99.90;;;;;;5077405;28;20676;-72
2023/02/13 06:38:23;;;;;;;5.30;4.80;;;7.20;99.90;;;;;;5083109;28;20294;-72
2023/02/13 06:40:50;;;;;;;5.90;5.40;;;7.20;99.90;;;;;;5068893;28;20207;-72
2023/02/13 06:43:17;;;;;;;6.10;5.10;;;7.20;99.90;;;;;;5069299;28;20207;-72
2023/02/13 06:45:46;;;;;;;5.30;4.80;;;7.30;99.90;;;;;;5068996;28;20226;-72
2023/02/13 06:48:13;;;;;;;5.23;4.83;;;7.30;99.90;;;;;;5068879;28;20223;-72
2023/02/13 06:50:40;;;;;;;7.90;5.40;;;7.30;99.90;;;;;;5069228;28;20207;-72
2023/02/13 06:53:07;;;;;;;5.60;5.10;;;7.30;99.90;;;;;;5068688;28;20330;-73
2023/02/13 06:55:38;;;;;;;6.33;5.73;;;7.20;99.90;;;;;;5069008;28;20572;-72
2023/02/13 06:58:05;;;;;;;6.40;5.47;;;7.20;99.90;;;;;;5069116;28;20192;-72
2023/02/13 07:00:32;;;;;;;6.43;5.60;;;7.20;99.90;;;;;;5068872;28;20306;-72
2023/02/13 07:03:02;;;;;;;6.30;5.70;;;7.20;99.90;;;;;;5068534;28;20207;-73
2023/02/13 07:05:29;;;;;;;5.90;5.30;;;7.20;99.90;;;;;;5068530;28;20310;-72
2023/02/13 07:07:56;;;;;;;6.37;5.77;;;7.20;99.90;;;;;;5068328;28;20203;-72
2023/02/13 07:10:23;;;;;;;6.03;5.53;;;7.20;99.90;;;;;;5068065;28;20595;-72
2023/02/13 07:12:51;;;;;;;7.67;6.13;;;7.20;99.90;;;;;;5067759;28;20720;-72
2023/02/13 07:15:18;;;;;;;7.47;6.77;;;7.10;99.90;;;;;;5067974;28;20235;-72
2023/02/13 07:17:45;;;;;;;6.50;5.90;;;7.10;99.90;;;;;;5052114;28;20240;-72
2023/02/13 07:20:12;;;;;;;8.00;6.90;;;7.10;99.90;;;;;;5048293;28;20291;-72
2023/02/13 07:22:39;;;;;;;9.23;6.60;;;7.10;99.90;;;;;;5047520;28;20331;-72
2023/02/13 07:25:07;;;;;;;8.10;7.10;;;7.20;99.90;;;;;;5048210;28;20204;-72
2023/02/13 07:27:34;;;;;;;11.47;7.00;;;7.10;99.90;;;;;;5053038;28;21297;-73
2023/02/13 07:30:02;;;;;;;7.30;6.60;;;7.10;99.90;;;;;;5047792;28;20689;-72
2023/02/13 07:32:29;;;;;;;8.00;7.13;;;7.10;99.90;;;;;;5048069;28;20263;-73
2023/02/13 07:34:56;;;;;;;9.33;8.43;;;7.20;99.90;;;;;;5052024;28;20310;-73
2023/02/13 07:37:23;;;;;;;7.37;6.67;;;7.20;99.90;;;;;;5068016;28;20203;-73
2023/02/13 07:39:49;;;;;;;7.07;6.30;;;7.20;99.90;;;;;;5067660;28;20294;-73
2023/02/13 07:42:16;;;;;;;7.63;5.67;;;7.20;99.90;;;;;;5068112;28;20212;-72
2023/02/13 07:44:43;;;;;;;6.70;5.67;;;7.20;99.90;;;;;;5067948;28;20207;-73
2023/02/13 07:47:11;;;;;;;6.90;6.07;;;7.20;99.90;;;;;;5067983;28;20314;-73
2023/02/13 07:49:38;;;;;;;6.40;5.80;;;7.20;99.90;;;;;;5067712;28;20326;-73
2023/02/13 07:52:06;;;;;;;7.20;6.50;;;7.20;99.90;;;;;;5067951;28;20328;-72
2023/02/13 07:54:33;;;;;;;6.70;6.10;;;7.20;99.90;;;;;;5067652;28;20291;-73
2023/02/13 07:57:00;;;;;;;7.27;5.90;;;7.20;99.90;;;;;;5067646;28;20807;-73
2023/02/13 07:59:27;;;;;;;6.40;5.60;;;7.10;99.90;;;;;;5067412;28;20638;-73
2023/02/13 08:01:54;;;;;;;7.57;6.27;;;7.10;99.90;;;;;;5067689;28;20210;-73
2023/02/13 08:04:22;;;;;;;7.07;5.80;;;7.20;99.90;;;;;;5067830;28;20293;-73
2023/02/13 08:06:49;;;;;;;6.90;6.20;;;7.10;99.90;;;;;;5077996;28;20294;-73
2023/02/13 08:12:07;;;;;;;9.37;6.27;;;7.20;99.90;;;;;;5067016;28;20222;-74
2023/02/13 08:14:34;;;;;;;7.37;6.10;;;7.10;99.90;;;;;;5067214;28;20330;-73
2023/02/13 08:17:01;;;;;;;7.40;6.70;;;7.10;99.90;;;;;;5067232;28;20208;-72
2023/02/13 08:19:30;;;;;;;9.10;6.63;;;7.20;99.90;;;;;;5067367;28;20215;-72
2023/02/13 08:21:57;;;;;;;7.10;6.40;;;7.20;99.90;;;;;;5067229;28;20207;-73
2023/02/13 08:24:24;;;;;;;8.10;6.87;;;7.10;99.90;;;;;;5061334;28;20294;-72
2023/02/13 08:26:51;;;;;;;7.90;5.87;;;7.10;99.90;;;;;;5067382;28;20294;-73
2023/02/13 08:29:18;;;;;;;8.70;6.37;;;7.10;99.90;;;;;;5067374;28;20286;-73
2023/02/13 08:31:45;;;;;;;8.27;6.63;;;7.10;99.90;;;;;;5067066;28;20231;-73
2023/02/13 08:34:12;;;;;;;7.27;6.57;;;7.10;99.90;;;;;;5067242;28;20212;-73
2023/02/13 08:36:40;;;;;;;9.43;5.67;;;7.10;99.90;;;;;;5067176;28;20233;-73
2023/02/13 08:39:08;;;;;;;7.40;6.67;;;7.10;99.90;;;;;;5066457;28;20722;-73
2023/02/13 08:41:35;;;;;;;6.67;5.97;;;7.10;99.90;;;;;;5066885;28;20211;-73
2023/02/13 08:44:02;;;;;;;6.70;5.83;;;7.10;99.90;;;;;;5067081;28;20290;-73
2023/02/13 08:46:29;;;;;;;6.53;5.87;;;7.10;99.90;;;;;;5067253;28;20306;-73
2023/02/13 08:48:56;;;;;;;7.37;6.00;;;7.10;99.90;;;;;;5067075;28;20294;-73
2023/02/13 08:51:23;;;;;;;8.20;6.20;;;7.10;99.90;;;;;;5066980;28;20294;-73
2023/02/13 08:53:51;;;;;;;6.63;5.47;;;7.10;99.90;;;;;;5066716;28;20211;-72
2023/02/13 08:56:18;;;;;;;7.13;5.73;;;7.10;99.90;;;;;;5066753;28;20253;-73
2023/02/13 08:58:47;;;;;;;7.00;5.97;;;7.10;99.90;;;;;;5066762;28;20247;-74
2023/02/13 09:01:14;;;;;;;7.33;6.20;;;7.20;99.90;;;;;;5067060;28;20438;-73
2023/02/13 09:03:41;;;;;;;7.30;6.33;;;7.20;99.90;;;;;;5067017;28;20306;-73
2023/02/13 09:06:08;;;;;;;7.07;6.30;;;7.20;99.90;;;;;;5076947;28;20241;-72
2023/02/13 09:08:35;;;;;;;9.00;6.23;;;7.20;99.90;;;;;;5082128;28;20580;-73
2023/02/13 09:11:06;;;;;;;8.80;6.40;;;7.10;99.90;;;;;;5046838;28;20212;-73
2023/02/13 09:13:35;;;;;;;8.27;6.53;;;7.10;99.90;;;;;;5046753;28;20307;-72
2023/02/13 09:16:03;;;;;;;7.50;6.37;;;7.10;99.90;;;;;;5046972;28;20232;-73
2023/02/13 09:18:31;;;;;;;7.70;6.90;;;7.20;99.90;;;;;;5047008;28;20235;-73
2023/02/13 09:20:59;;;;;;;9.00;6.83;;;7.20;99.90;;;;;;5046836;28;20266;-72
2023/02/13 09:23:26;;;;;;;8.40;6.83;;;7.20;99.90;;;;;;5046527;28;20244;-73
2023/02/13 09:25:53;;;;;;;8.77;6.83;;;7.20;99.90;;;;;;5046533;28;20303;-73
2023/02/13 09:28:21;;;;;;;9.97;6.93;;;7.20;99.90;;;;;;5056284;28;20575;-72
2023/02/13 09:30:49;;;;;;;7.53;6.53;;;7.20;99.90;;;;;;5059265;28;20235;-73
2023/02/13 09:33:15;;;;;;;11.63;7.53;;;7.30;99.90;;;;;;5046764;28;20240;-73
2023/02/13 09:35:43;;;;;;;12.63;7.40;;;7.30;99.90;;;;;;5059236;28;20236;-73
2023/02/13 09:38:11;;;;;;;11.43;8.03;;;7.30;99.90;;;;;;5085455;28;20211;-73
2023/02/13 09:40:43;;;;;;;9.47;7.60;;;7.40;99.90;;;;;;5069921;28;20211;-73
2023/02/13 09:43:15;;;;;;;10.43;7.17;;;7.30;99.90;;;;;;5070449;28;20223;-72
2023/02/13 09:45:46;;;;;;;10.50;7.60;;;7.30;99.90;;;;;;5069962;28;20660;-73
2023/02/13 09:48:22;;;;;;;11.70;7.80;;;7.40;99.90;;;;;;5070340;28;20245;-73
2023/02/13 09:50:49;;;;;;;11.30;8.03;;;7.40;99.90;;;;;;5070273;28;20275;-73
2023/02/13 09:53:21;;;;;;;11.10;7.97;;;7.40;99.90;;;;;;5070170;28;20345;-72
2023/02/13 09:55:56;;;;;;;12.43;8.33;;;7.40;99.90;;;;;;5069846;28;20198;-73
2023/02/13 09:58:36;;;;;;;11.63;8.73;;;7.50;99.90;;;;;;5069979;28;20199;-73
2023/02/13 10:01:11;;;;;;;13.33;8.77;;;7.50;99.90;;;;;;5070285;28;20283;-73
2023/02/13 10:03:44;;;;;;;13.00;8.57;;;7.40;99.90;;;;;;5070164;28;20310;-72
2023/02/13 10:06:19;;;;;;;13.07;8.77;;;7.40;99.90;;;;;;5080356;28;20230;-73
2023/02/13 10:08:58;;;;;;;15.30;9.13;;;7.50;99.90;;;;;;5049425;28;20307;-73
2023/02/13 10:11:49;;;;;;;13.00;8.93;;;7.40;99.90;;;;;;5049804;28;20245;-73
2023/02/13 10:14:19;;;;;;;10.60;7.87;;;7.40;99.90;;;;;;5050042;28;20307;-73
2023/02/13 10:16:51;;;;;;;11.23;8.20;;;7.40;99.90;;;;;;5054472;28;20310;-72
2023/02/13 10:19:34;;;;;;;15.50;8.37;;;7.50;99.90;;;;;;5049407;28;20200;-73
2023/02/13 10:22:06;;;;;;;15.10;9.33;;;7.50;99.90;;;;;;5049515;28;20307;-72
2023/02/13 10:24:38;;;;;;;13.53;8.87;;;7.50;99.90;;;;;;5067338;28;20222;-74
2023/02/13 10:27:15;;;;;;;13.50;8.97;;;7.60;99.90;;;;;;5089896;28;20690;-73
2023/02/13 10:32:38;;;;;;;14.70;9.23;;;7.60;99.90;;;;;;5049222;28;20322;-72
2023/02/13 10:35:23;;;;;;;11.83;7.97;;;7.60;99.90;;;;;;5049290;28;20790;-73
2023/02/13 10:37:53;;;;;;;11.67;8.30;;;7.60;99.90;;;;;;5050296;28;20199;-72
2023/02/13 10:40:21;;;;;;;12.57;8.63;;;7.60;99.90;;;;;;5068954;28;20851;-73
2023/02/13 10:43:00;;;;;;;11.90;8.03;;;7.50;99.90;;;;;;5069008;28;20331;-72
2023/02/13 10:45:49;;;;;;;9.13;7.90;;;7.60;99.90;;;;;;5069109;28;20670;-73
2023/02/13 10:48:38;;;;;;;12.03;8.57;;;7.60;99.90;;;;;;5068706;28;20444;-73
2023/02/13 10:51:12;;;;;;;10.50;7.83;;;7.60;99.90;;;;;;5068812;28;20645;-72
2023/02/13 10:53:55;;;;;;;8.63;7.37;;;7.60;99.90;;;;;;5068717;28;20227;-72
2023/02/13 10:56:30;;;;;;;11.07;8.43;;;7.70;99.90;;;;;;5068851;28;20282;-72
2023/02/13 10:59:24;;;;;;;10.57;8.20;;;7.70;99.90;;;;;;5068849;28;20231;-72
2023/02/13 11:01:56;;;;;;;9.73;8.60;;;7.70;99.90;;;;;;5068624;28;20298;-72
2023/02/13 11:04:25;;;;;;;11.17;8.53;;;7.80;99.90;;;;;;5068583;28;20749;-72
2023/02/13 11:06:59;;;;;;;11.33;8.80;;;7.80;99.90;;;;;;5084648;28;20246;-72
2023/02/13 11:09:26;;;;;;;10.60;8.23;;;7.80;99.90;;;;;;5088125;28;20924;-72
2023/02/13 11:11:54;;;;;;;14.90;10.03;;;7.80;99.90;;;;;;5085114;28;20514;-72
2023/02/13 11:14:22;;;;;;;15.53;10.03;;;7.80;99.90;;;;;;5049772;28;20236;-72
2023/02/13 11:16:57;;;;;;;12.57;9.70;;;7.80;99.90;;;;;;5048215;28;20656;-72
2023/02/13 11:19:31;;;;;;;9.40;8.40;;;7.80;99.90;;;;;;5048415;28;20646;-72
2023/02/13 11:22:03;;;;;;;11.63;9.30;;;7.80;99.90;;;;;;5085503;28;20195;-72
2023/02/13 11:24:31;;;;;;;12.17;10.20;;;7.80;99.90;;;;;;5088039;28;20653;-72
2023/02/13 11:27:00;;;;;;;12.93;10.63;;;7.90;99.90;;;;;;5088205;28;20207;-72
2023/02/13 11:29:30;;;;;;;12.33;9.40;;;7.90;99.90;;;;;;5088504;28;20740;-72
2023/02/13 11:32:20;;;;;;;11.80;10.03;;;7.90;99.90;;;;;;5088534;28;20614;-72
2023/02/13 11:34:50;;;;;;;10.67;9.23;;;7.90;99.90;;;;;;5088372;28;20285;-72
2023/02/13 11:37:23;;;;;;;12.53;10.47;;;7.90;99.90;;;;;;5088666;28;20195;-72
2023/02/13 11:39:52;;;;;;;13.20;9.97;;;8.00;99.90;;;;;;5069513;28;20262;-72
2023/02/13 11:42:27;;;;;;;11.60;10.00;;;8.00;99.90;;;;;;5068072;28;20200;-72
2023/02/13 11:44:58;;;;;;;11.70;9.77;;;8.00;99.90;;;;;;5067379;28;20891;-72
2023/02/13 11:47:35;;;;;;;11.80;10.03;;;7.90;99.90;;;;;;5067651;28;20319;-72
2023/02/13 11:50:05;;;;;;;11.87;10.30;;;7.90;99.90;;;;;;5067818;28;20195;-73
2023/02/13 11:52:35;;;;;;;11.07;9.87;;;7.90;99.90;;;;;;5067711;28;20230;-73
2023/02/13 11:55:04;;;;;;;11.03;9.90;;;7.90;99.90;;;;;;5067900;28;20218;-72
2023/02/13 11:57:33;;;;;;;12.50;9.93;;;7.90;99.90;;;;;;5067648;28;20239;-72
2023/02/13 12:00:01;;;;;;;11.83;9.87;;;7.90;99.90;;;;;;5066615;28;20218;-72
2023/02/13 12:02:29;;;;;;;13.53;11.10;;;7.90;99.90;;;;;;5067583;28;20239;-72
2023/02/13 12:05:18;;;;;;;12.93;10.23;;;7.90;99.90;;;;;;5067381;28;20350;-72
2023/02/13 12:07:46;;;;;;;12.23;10.30;;;8.00;99.90;;;;;;5067017;28;20633;-72
2023/02/13 12:10:21;;;;;;;12.93;10.63;;;8.00;99.90;;;;;;5051497;28;20726;-71
2023/02/13 12:12:55;;;;;;;13.53;11.27;;;7.90;99.90;;;;;;5047467;28;20234;-72
2023/02/13 12:15:25;;;;;;;12.30;10.23;;;7.90;99.90;;;;;;5047885;28;20282;-72
2023/02/13 12:18:13;;;;;;;12.10;10.90;;;8.00;99.90;;;;;;5079052;28;20198;-72
2023/02/13 12:20:52;;;;;;;11.50;9.80;;;7.90;99.90;;;;;;5087409;28;20197;-72
2023/02/13 12:23:31;;;;;;;13.03;10.23;;;8.00;99.90;;;;;;5087124;28;20324;-72
2023/02/13 12:26:13;;;;;;;13.73;10.70;;;7.90;99.90;;;;;;5087494;28;20201;-72
2023/02/13 12:29:00;;;;;;;13.80;10.67;;;8.00;99.90;;;;;;5087357;28;20289;-72
2023/02/13 12:32:00;;;;;;;13.20;9.90;;;8.00;99.90;;;;;;5074006;28;20471;-73
2023/02/13 12:34:55;;;;;;;12.47;10.43;;;8.00;99.90;;;;;;5067052;28;20700;-72
2023/02/13 12:37:44;;;;;;;14.17;10.67;;;8.00;99.90;;;;;;5067408;28;20274;-72
2023/02/13 12:40:29;;;;;;;12.70;10.47;;;8.10;99.90;;;;;;5047345;28;20276;-72
2023/02/13 12:43:12;;;;;;;12.47;10.70;;;8.10;99.90;;;;;;5069216;28;20226;-73
2023/02/13 12:45:42;;;;;;;13.83;11.23;;;8.10;99.90;;;;;;5087261;28;20428;-72
2023/02/13 12:48:29;;;;;;;16.13;11.67;;;8.10;99.90;;;;;;5087279;28;20289;-72
2023/02/13 12:51:04;;;;;;;12.40;10.97;;;8.10;99.90;;;;;;5087319;28;20191;-72
2023/02/13 12:53:47;;;;;;;12.03;10.50;;;8.20;99.90;;;;;;5085448;28;20313;-72
2023/02/13 12:56:39;;;;;;;12.17;10.83;;;8.10;99.90;;;;;;5067039;28;20281;-72
2023/02/13 12:59:14;;;;;;;12.47;10.63;;;8.10;99.90;;;;;;5067307;28;20328;-72
2023/02/13 13:02:08;;;;;;;16.33;11.20;;;8.10;99.90;;;;;;5067196;28;20295;-71
2023/02/13 13:04:45;;;;;;;12.60;10.57;;;8.10;99.90;;;;;;5066959;28;20287;-72
2023/02/13 13:07:44;;;;;;;11.63;10.43;;;8.20;99.90;;;;;;5084889;28;20293;-72
2023/02/13 13:10:31;;;;;;;12.40;10.33;;;8.10;99.90;;;;;;5087338;28;20231;-72
2023/02/13 13:13:08;;;;;;;11.73;10.53;;;8.10;99.90;;;;;;5083403;28;20302;-72
2023/02/13 13:15:40;;;;;;;11.93;9.73;;;8.00;99.90;;;;;;5071025;28;20291;-72
2023/02/13 13:18:24;;;;;;;11.93;10.27;;;8.00;99.90;;;;;;5070884;28;20278;-72
2023/02/13 13:21:01;;;;;;;11.47;9.80;;;8.00;99.90;;;;;;5070669;28;20223;-72
2023/02/13 13:23:32;;;;;;;11.97;9.67;;;8.00;99.90;;;;;;5070279;28;20247;-72
2023/02/13 13:26:10;;;;;;;14.97;10.60;;;8.10;99.90;;;;;;5070210;28;20664;-72
2023/02/13 13:28:40;;;;;;;14.43;10.70;;;8.10;99.90;;;;;;5070688;28;20428;-71
2023/02/13 13:31:08;;;;;;;12.23;10.93;;;8.10;99.90;;;;;;5070672;28;20606;-72
2023/02/13 13:33:39;;;;;;;13.73;10.03;;;8.00;99.90;;;;;;5070280;28;20326;-72
2023/02/13 13:36:14;;;;;;;12.63;10.00;;;8.10;99.90;;;;;;5080092;28;20298;-72
2023/02/13 13:38:51;;;;;;;11.70;10.07;;;8.00;99.90;;;;;;5081786;28;20207;-72
2023/02/13 13:41:26;;;;;;;13.73;10.30;;;8.00;99.90;;;;;;5070517;28;20395;-72
2023/02/13 13:44:19;;;;;;;12.20;10.50;;;8.00;99.90;;;;;;5070382;28;20278;-72
2023/02/13 13:46:57;;;;;;;11.73;9.63;;;8.00;99.90;;;;;;5061692;28;20223;-72
2023/02/13 13:49:37;;;;;;;13.77;10.77;;;8.10;99.90;;;;;;5070564;28;20225;-72
2023/02/13 13:52:23;;;;;;;13.23;9.87;;;8.00;99.90;;;;;;5050353;28;20279;-74
2023/02/13 13:54:52;;;;;;;12.17;9.80;;;8.00;99.90;;;;;;5049448;28;20978;-72
2023/02/13 13:57:22;;;;;;;11.80;9.43;;;8.10;99.90;;;;;;5050076;28;20993;-72
2023/02/13 14:00:23;;;;;;;19.50;10.90;;;8.10;99.90;;;;;;5049939;28;20295;-72